Ship Status Report: callsign WDJ460O

sailwx.info

Track history (hours):
 
Tides and Currents Weather Stations Pressure Air Temp Water Temp Dewpoint Dewpoint Depression Visibility Wind Speed Wind Dir Waves Ship Positions

Callsign WDJ460O (name unknown)

Last reported at 2017-Dec-09 01:53 UTC. Time now 2018-Jan-21 01:08 UTC.
Position N 40°46' W 074°00'.
Warning: this ship's position is 42 days out of date.

Date/timePositionNaut miles runAvg speedWind from/ knotsBaromVisibWave heightAir tempDewpointWater temp
2017-Dec-09 01:53N 40°46' W 074°00'2 6.3
2017-Dec-09 01:30N 40°44' W 074°01'3 5.1
2017-Dec-09 01:00N 40°44' W 073°58'5 9.1
2017-Dec-09 00:30N 40°41' W 074°02'5 4.8
2017-Dec-08 23:30N 40°46' W 074°00'0 0.0
2017-Dec-08 23:01N 40°46' W 074°00'0 0.0
2017-Dec-08 22:29N 40°46' W 074°00'0 0.0
2017-Dec-08 22:00N 40°46' W 074°00'4 7.5
2017-Dec-08 21:30N 40°42' W 074°00'1 3.0
2017-Dec-08 21:01N 40°42' W 074°02'4 8.7
2017-Dec-08 20:29N 40°46' W 074°00'0 0.0
2017-Dec-08 20:00N 40°46' W 074°00'0 0.0
2017-Dec-08 19:30N 40°46' W 074°00'5 9.5
2017-Dec-08 19:01N 40°41' W 074°02'5 9.1
2017-Dec-08 18:30N 40°46' W 074°00'0 0.0
2017-Dec-08 18:00N 40°46' W 074°00'0 0.0
2017-Dec-08 17:30N 40°46' W 074°00'0 0.0
2017-Dec-08 17:00N 40°46' W 074°00'0 0.0
2017-Dec-08 16:30N 40°46' W 074°00'0 0.0
2017-Dec-08 16:00N 40°46' W 074°00'0 0.0
2017-Dec-07 19:27N 40°46' W 074°00'511.6
2017-Dec-07 19:00N 40°41' W 074°02'510.1
2017-Dec-07 18:30N 40°46' W 074°00'0 0.0
2017-Dec-07 17:59N 40°46' W 074°00'0 0.0
2017-Dec-07 17:30N 40°46' W 074°00'0 0.0
2017-Dec-07 17:00N 40°46' W 074°00'0 0.0
2017-Dec-07 16:30N 40°46' W 074°00'0 0.0
2017-Dec-07 16:00N 40°46' W 074°00'5 9.6
2017-Dec-07 15:30N 40°41' W 074°02'5 9.3
2017-Dec-07 15:00N 40°46' W 074°00'0 0.0
2017-Dec-07 14:30N 40°46' W 074°00'0 0.0
2017-Dec-07 14:00N 40°46' W 074°00'0 0.0
2017-Dec-07 13:30N 40°46' W 074°00'0 0.0
2017-Dec-07 13:00N 40°46' W 074°00'0 0.0
2017-Dec-07 12:30N 40°46' W 074°00'  
2017-Dec-03 19:22N 40°46' W 074°00'513.3
2017-Dec-03 19:00N 40°41' W 074°02'5 9.6
2017-Dec-03 18:30N 40°46' W 074°00'0 0.0
2017-Dec-03 18:00N 40°46' W 074°00'0 0.0
2017-Dec-03 17:30N 40°46' W 074°00'0 0.0
2017-Dec-03 17:00N 40°46' W 074°00'0 0.0
2017-Dec-03 16:30N 40°46' W 074°00'0 0.0
2017-Dec-03 16:01N 40°46' W 074°00'5 9.4
2017-Dec-03 15:30N 40°41' W 074°02'5 9.7
2017-Dec-03 15:00N 40°46' W 074°00'0 0.0
2017-Dec-03 14:30N 40°46' W 074°00'0 0.0
2017-Dec-03 14:00N 40°46' W 074°00'0 0.0
2017-Dec-03 13:30N 40°46' W 074°00'0 0.0
2017-Dec-03 01:48N 40°46' W 074°00'2 6.9
2017-Dec-03 01:30N 40°44' W 074°01'3 5.1
2017-Dec-03 01:00N 40°45' W 073°58'5 9.7
2017-Dec-03 00:30N 40°41' W 074°03'5 9.9
2017-Dec-03 00:00N 40°46' W 074°00'0 0.0
2017-Dec-02 23:30N 40°46' W 074°00'0 0.0
2017-Dec-02 23:00N 40°46' W 074°00'0 0.0
2017-Dec-02 22:30N 40°46' W 074°00'0 0.0
2017-Dec-02 22:00N 40°46' W 074°00'3 6.8
2017-Dec-02 21:31N 40°42' W 073°60'2 4.5
2017-Dec-02 21:00N 40°42' W 074°02'5 9.2
2017-Dec-02 20:31N 40°46' W 074°00'0 0.0
2017-Dec-02 20:00N 40°46' W 074°00'0 0.4
2017-Dec-02 19:31N 40°46' W 074°00'5 9.8
2017-Dec-02 19:00N 40°41' W 074°02'5 9.5
2017-Dec-02 18:30N 40°46' W 074°00'0 0.0
2017-Dec-02 18:01N 40°46' W 074°00'0 0.0
2017-Dec-02 17:30N 40°46' W 074°00'0 0.0
2017-Dec-02 17:00N 40°46' W 074°00'0 0.0
2017-Dec-02 01:48N 40°46' W 074°00'310.7
2017-Dec-02 01:30N 40°43' W 074°01'3 6.5
2017-Dec-02 01:00N 40°45' W 073°58'5 9.4
2017-Dec-02 00:30N 40°41' W 074°02'5 9.5
2017-Dec-02 00:00N 40°46' W 074°00'0 0.0
2017-Dec-01 23:30N 40°46' W 074°00'0 0.0
2017-Dec-01 23:00N 40°46' W 074°00'0 0.0
2017-Dec-01 22:30N 40°46' W 074°00'0 0.0
2017-Dec-01 22:00N 40°46' W 074°00'4 7.2
2017-Dec-01 21:30N 40°42' W 074°00'2 3.7
2017-Dec-01 21:00N 40°41' W 074°02'5 9.6
2017-Dec-01 20:30N 40°46' W 074°00'0 0.0
2017-Dec-01 20:00N 40°46' W 074°00'0 0.2
2017-Dec-01 19:30N 40°46' W 074°00'4 7.6
2017-Dec-01 19:00N 40°42' W 074°02'4 7.6
2017-Dec-01 18:30N 40°46' W 074°00'0 0.0
2017-Dec-01 18:01N 40°46' W 074°00'0 0.0
2017-Dec-01 17:30N 40°46' W 074°00'0 0.0
2017-Nov-30 19:28N 40°46' W 074°00'510.8
2017-Nov-30 19:00N 40°41' W 074°02'5 9.9
2017-Nov-30 18:30N 40°46' W 074°00'0 0.0
2017-Nov-30 18:00N 40°46' W 074°00'0 0.0
2017-Nov-30 17:30N 40°46' W 074°00'0 0.0
2017-Nov-30 17:00N 40°46' W 074°00'0 0.0
2017-Nov-30 16:30N 40°46' W 074°00'0 0.0
2017-Nov-30 16:00N 40°46' W 074°00'5 9.5
2017-Nov-30 15:30N 40°41' W 074°02'5 9.5
2017-Nov-30 15:00N 40°46' W 074°00'0 0.0
2017-Nov-30 14:30N 40°46' W 074°00'0 0.0
2017-Nov-30 14:00N 40°46' W 074°00'0 0.0
2017-Nov-30 13:30N 40°46' W 074°00'0 0.0
2017-Nov-30 13:00N 40°46' W 074°00'0 0.0
2017-Nov-29 19:28N 40°46' W 074°00'510.3
2017-Nov-29 19:00N 40°41' W 074°02'5 9.3
2017-Nov-29 18:30N 40°46' W 074°00'0 0.0
2017-Nov-29 18:00N 40°46' W 074°00'0 0.0
2017-Nov-29 17:30N 40°46' W 074°00'0 0.0
2017-Nov-29 17:00N 40°46' W 074°00'0 0.0
2017-Nov-29 16:30N 40°46' W 074°00'0 0.0
2017-Nov-29 16:00N 40°46' W 074°00'510.1
2017-Nov-29 15:30N 40°41' W 074°03'510.0
2017-Nov-29 15:00N 40°46' W 074°00'0 0.0
2017-Nov-29 14:30N 40°46' W 074°00'0 0.0
2017-Nov-29 14:00N 40°46' W 074°00'0 0.0
2017-Nov-29 13:30N 40°46' W 074°00'0 0.0
2017-Nov-29 13:00N 40°46' W 074°00'  
Track history (hours):
 
Tides and Currents Weather Stations Pressure Air Temp Water Temp Dewpoint Dewpoint Depression Visibility Wind Speed Wind Dir Waves Ship Positions

Callsign WDJ460O (name unknown)

Last reported at 2017-Dec-09 01:53 UTC. Time now 2018-Jan-21 01:09 UTC.
Position N 40°46' W 074°00'.
Warning: this ship's position is 42 days out of date.

Date/timePositionNaut miles runAvg speedWind from/ knotsBaromVisibWave heightAir tempDewpointWater temp
2017-Dec-09 01:53N 40°46' W 074°00'2 6.3
2017-Dec-09 01:30N 40°44' W 074°01'3 5.1
2017-Dec-09 01:00N 40°44' W 073°58'5 9.1
2017-Dec-09 00:30N 40°41' W 074°02'5 4.8
2017-Dec-08 23:30N 40°46' W 074°00'0 0.0
2017-Dec-08 23:01N 40°46' W 074°00'0 0.0
2017-Dec-08 22:29N 40°46' W 074°00'0 0.0
2017-Dec-08 22:00N 40°46' W 074°00'4 7.5
2017-Dec-08 21:30N 40°42' W 074°00'1 3.0
2017-Dec-08 21:01N 40°42' W 074°02'4 8.7
2017-Dec-08 20:29N 40°46' W 074°00'0 0.0
2017-Dec-08 20:00N 40°46' W 074°00'0 0.0
2017-Dec-08 19:30N 40°46' W 074°00'5 9.5
2017-Dec-08 19:01N 40°41' W 074°02'5 9.1
2017-Dec-08 18:30N 40°46' W 074°00'0 0.0
2017-Dec-08 18:00N 40°46' W 074°00'0 0.0
2017-Dec-08 17:30N 40°46' W 074°00'0 0.0
2017-Dec-08 17:00N 40°46' W 074°00'0 0.0
2017-Dec-08 16:30N 40°46' W 074°00'0 0.0
2017-Dec-08 16:00N 40°46' W 074°00'0 0.0
2017-Dec-07 19:27N 40°46' W 074°00'511.6
2017-Dec-07 19:00N 40°41' W 074°02'510.1
2017-Dec-07 18:30N 40°46' W 074°00'0 0.0
2017-Dec-07 17:59N 40°46' W 074°00'0 0.0
2017-Dec-07 17:30N 40°46' W 074°00'0 0.0
2017-Dec-07 17:00N 40°46' W 074°00'0 0.0
2017-Dec-07 16:30N 40°46' W 074°00'0 0.0
2017-Dec-07 16:00N 40°46' W 074°00'5 9.6
2017-Dec-07 15:30N 40°41' W 074°02'5 9.3
2017-Dec-07 15:00N 40°46' W 074°00'0 0.0
2017-Dec-07 14:30N 40°46' W 074°00'0 0.0
2017-Dec-07 14:00N 40°46' W 074°00'0 0.0
2017-Dec-07 13:30N 40°46' W 074°00'0 0.0
2017-Dec-07 13:00N 40°46' W 074°00'0 0.0
2017-Dec-07 12:30N 40°46' W 074°00'  
2017-Dec-03 19:22N 40°46' W 074°00'513.3
2017-Dec-03 19:00N 40°41' W 074°02'5 9.6
2017-Dec-03 18:30N 40°46' W 074°00'0 0.0
2017-Dec-03 18:00N 40°46' W 074°00'0 0.0
2017-Dec-03 17:30N 40°46' W 074°00'0 0.0
2017-Dec-03 17:00N 40°46' W 074°00'0 0.0
2017-Dec-03 16:30N 40°46' W 074°00'0 0.0
2017-Dec-03 16:01N 40°46' W 074°00'5 9.4
2017-Dec-03 15:30N 40°41' W 074°02'5 9.7
2017-Dec-03 15:00N 40°46' W 074°00'0 0.0
2017-Dec-03 14:30N 40°46' W 074°00'0 0.0
2017-Dec-03 14:00N 40°46' W 074°00'0 0.0
2017-Dec-03 13:30N 40°46' W 074°00'0 0.0
2017-Dec-03 01:48N 40°46' W 074°00'2 6.9
2017-Dec-03 01:30N 40°44' W 074°01'3 5.1
2017-Dec-03 01:00N 40°45' W 073°58'5 9.7
2017-Dec-03 00:30N 40°41' W 074°03'5 9.9
2017-Dec-03 00:00N 40°46' W 074°00'0 0.0
2017-Dec-02 23:30N 40°46' W 074°00'0 0.0
2017-Dec-02 23:00N 40°46' W 074°00'0 0.0
2017-Dec-02 22:30N 40°46' W 074°00'0 0.0
2017-Dec-02 22:00N 40°46' W 074°00'3 6.8
2017-Dec-02 21:31N 40°42' W 073°60'2 4.5
2017-Dec-02 21:00N 40°42' W 074°02'5 9.2
2017-Dec-02 20:31N 40°46' W 074°00'0 0.0
2017-Dec-02 20:00N 40°46' W 074°00'0 0.4
2017-Dec-02 19:31N 40°46' W 074°00'5 9.8
2017-Dec-02 19:00N 40°41' W 074°02'5 9.5
2017-Dec-02 18:30N 40°46' W 074°00'0 0.0
2017-Dec-02 18:01N 40°46' W 074°00'0 0.0
2017-Dec-02 17:30N 40°46' W 074°00'0 0.0
2017-Dec-02 17:00N 40°46' W 074°00'0 0.0
2017-Dec-02 01:48N 40°46' W 074°00'310.7
2017-Dec-02 01:30N 40°43' W 074°01'3 6.5
2017-Dec-02 01:00N 40°45' W 073°58'5 9.4
2017-Dec-02 00:30N 40°41' W 074°02'5 9.5
2017-Dec-02 00:00N 40°46' W 074°00'0 0.0
2017-Dec-01 23:30N 40°46' W 074°00'0 0.0
2017-Dec-01 23:00N 40°46' W 074°00'0 0.0
2017-Dec-01 22:30N 40°46' W 074°00'0 0.0
2017-Dec-01 22:00N 40°46' W 074°00'4 7.2
2017-Dec-01 21:30N 40°42' W 074°00'2 3.7
2017-Dec-01 21:00N 40°41' W 074°02'5 9.6
2017-Dec-01 20:30N 40°46' W 074°00'0 0.0
2017-Dec-01 20:00N 40°46' W 074°00'0 0.2
2017-Dec-01 19:30N 40°46' W 074°00'4 7.6
2017-Dec-01 19:00N 40°42' W 074°02'4 7.6
2017-Dec-01 18:30N 40°46' W 074°00'0 0.0
2017-Dec-01 18:01N 40°46' W 074°00'0 0.0
2017-Dec-01 17:30N 40°46' W 074°00'0 0.0
2017-Nov-30 19:28N 40°46' W 074°00'510.8
2017-Nov-30 19:00N 40°41' W 074°02'5 9.9
2017-Nov-30 18:30N 40°46' W 074°00'0 0.0
2017-Nov-30 18:00N 40°46' W 074°00'0 0.0
2017-Nov-30 17:30N 40°46' W 074°00'0 0.0
2017-Nov-30 17:00N 40°46' W 074°00'0 0.0
2017-Nov-30 16:30N 40°46' W 074°00'0 0.0
2017-Nov-30 16:00N 40°46' W 074°00'5 9.5
2017-Nov-30 15:30N 40°41' W 074°02'5 9.5
2017-Nov-30 15:00N 40°46' W 074°00'0 0.0
2017-Nov-30 14:30N 40°46' W 074°00'0 0.0
2017-Nov-30 14:00N 40°46' W 074°00'0 0.0
2017-Nov-30 13:30N 40°46' W 074°00'0 0.0
2017-Nov-30 13:00N 40°46' W 074°00'0 0.0
2017-Nov-29 19:28N 40°46' W 074°00'510.3
2017-Nov-29 19:00N 40°41' W 074°02'5 9.3
2017-Nov-29 18:30N 40°46' W 074°00'0 0.0
2017-Nov-29 18:00N 40°46' W 074°00'0 0.0
2017-Nov-29 17:30N 40°46' W 074°00'0 0.0
2017-Nov-29 17:00N 40°46' W 074°00'0 0.0
2017-Nov-29 16:30N 40°46' W 074°00'0 0.0
2017-Nov-29 16:00N 40°46' W 074°00'510.1
2017-Nov-29 15:30N 40°41' W 074°03'510.0
2017-Nov-29 15:00N 40°46' W 074°00'0 0.0
2017-Nov-29 14:30N 40°46' W 074°00'0 0.0
2017-Nov-29 14:00N 40°46' W 074°00'0 0.0
2017-Nov-29 13:30N 40°46' W 074°00'0 0.0
2017-Nov-29 13:00N 40°46' W 074°00'  

Dump ship's entire track history